createdAt,value
2023-01-26T00:03:47.821Z,101159.30
2023-01-26T00:07:28.197Z,101156.16
2023-01-26T00:11:05.135Z,101154.63
2023-01-26T00:30:06.816Z,101129.38
2023-01-26T01:12:41.043Z,101110.52
2023-01-26T01:23:06.160Z,101111.00
2023-01-26T01:53:51.248Z,101087.59
2023-01-26T02:04:35.039Z,101057.53
2023-01-26T02:07:37.302Z,101052.02
2023-01-26T02:13:58.154Z,101045.64
2023-01-26T02:20:34.077Z,101044.80
2023-01-26T02:24:17.152Z,101032.84
2023-01-26T02:40:47.068Z,101018.42
2023-01-26T02:56:54.984Z,100998.78
2023-01-26T03:00:12.487Z,100998.63
2023-01-26T03:03:37.256Z,101006.55
2023-01-26T03:06:42.257Z,101004.00
2023-01-26T03:10:27.279Z,101002.27
2023-01-26T03:46:33.274Z,100975.10
2023-01-26T03:53:14.245Z,100973.88
2023-01-26T04:00:29.177Z,100960.79
2023-01-26T04:07:12.133Z,100961.17
2023-01-26T04:10:57.766Z,100961.10
2023-01-26T04:14:16.964Z,100955.30
2023-01-26T04:20:08.463Z,100947.16
2023-01-26T04:23:23.260Z,100944.56
2023-01-26T04:26:35.313Z,100943.30
2023-01-26T04:29:55.754Z,100943.23
2023-01-26T04:36:44.733Z,100937.30
2023-01-26T04:43:33.712Z,100923.73
2023-01-26T04:47:13.928Z,100923.21
2023-01-26T04:50:41.985Z,100923.55
2023-01-26T05:18:10.784Z,100919.67
2023-01-26T05:21:39.081Z,100919.25
2023-01-26T05:24:59.212Z,100912.73
2023-01-26T05:28:28.722Z,100909.48
2023-01-26T05:45:22.661Z,100900.39
2023-01-26T05:52:07.653Z,100905.81
2023-01-26T05:55:27.613Z,100914.39
2023-01-26T05:58:56.053Z,100913.69
2023-01-26T06:02:09.714Z,100910.34
2023-01-26T06:05:48.093Z,100916.35
2023-01-26T06:12:29.352Z,100907.48
2023-01-26T06:22:23.059Z,100898.64
2023-01-26T06:25:26.565Z,100897.23
2023-01-26T06:28:44.669Z,100893.79
2023-01-26T06:42:14.702Z,100904.00
2023-01-26T06:48:42.615Z,100908.39
2023-01-26T06:52:18.289Z,100906.55
2023-01-26T06:55:48.875Z,100902.48
2023-01-26T06:59:12.653Z,100906.77
2023-01-26T07:01:50.245Z,100907.11
2023-01-26T07:04:40.804Z,100904.02
2023-01-26T07:07:44.164Z,100896.96
2023-01-26T07:11:09.083Z,100898.67
2023-01-26T07:14:23.894Z,100907.77
2023-01-26T07:17:29.146Z,100917.35
2023-01-26T07:34:24.119Z,100900.85
2023-01-26T08:09:45.008Z,100900.63
2023-01-26T09:00:16.177Z,100888.33
2023-01-26T09:03:46.345Z,100892.94
2023-01-26T09:07:07.120Z,100900.60
2023-01-26T09:10:45.987Z,100903.69
2023-01-26T09:17:40.927Z,100912.21
2023-01-26T09:21:07.904Z,100912.92
2023-01-26T09:24:36.115Z,100908.98
2023-01-26T09:40:53.134Z,100904.39
2023-01-26T09:44:04.650Z,100904.42
2023-01-26T09:47:25.378Z,100904.28
2023-01-26T09:57:12.116Z,100901.38
2023-01-26T10:00:41.987Z,100897.45
2023-01-26T10:04:06.964Z,100888.88
2023-01-26T10:08:09.870Z,100892.48
2023-01-26T10:11:28.329Z,100891.63
2023-01-26T10:14:45.583Z,100882.92
2023-01-26T10:18:08.977Z,100877.77
2023-01-26T10:21:29.430Z,100872.47
2023-01-26T10:27:44.139Z,100875.04
2023-01-26T10:31:07.421Z,100875.56
2023-01-26T10:37:34.113Z,100851.41
2023-01-26T10:40:58.191Z,100848.31
2023-01-26T10:47:33.208Z,100852.09
2023-01-26T10:51:02.333Z,100851.22
2023-01-26T11:01:07.978Z,100848.61
2023-01-26T11:04:20.075Z,100847.23
2023-01-26T11:07:49.469Z,100845.86
2023-01-26T11:18:04.686Z,100834.36
2023-01-26T11:21:42.234Z,100828.73
2023-01-26T11:25:10.835Z,100817.59
2023-01-26T11:29:02.805Z,100807.79
2023-01-26T11:32:06.836Z,100810.19
2023-01-26T11:35:23.238Z,100813.44
2023-01-26T11:38:35.770Z,100813.27
2023-01-26T11:41:20.620Z,100810.70
2023-01-26T11:44:39.612Z,100806.07
2023-01-26T11:47:32.117Z,100800.40
2023-01-26T11:50:18.608Z,100799.54
2023-01-26T11:53:03.508Z,100796.77
2023-01-26T11:56:17.150Z,100799.02
2023-01-26T11:58:59.310Z,100792.15
2023-01-26T12:02:03.373Z,100786.69
2023-01-26T12:04:53.533Z,100782.23
2023-01-26T12:07:55.797Z,100778.79
2023-01-26T12:10:37.176Z,100780.66
2023-01-26T12:13:21.928Z,100777.92
2023-01-26T12:15:57.147Z,100771.61
2023-01-26T12:19:09.201Z,100771.29
2023-01-26T12:21:41.746Z,100766.34
2023-01-26T12:24:48.415Z,100760.55
2023-01-26T12:27:56.343Z,100763.98
2023-01-26T12:31:39.472Z,100768.61
2023-01-26T12:35:28.369Z,100765.52
2023-01-26T12:39:18.169Z,100760.70
2023-01-26T12:43:00.556Z,100758.64
2023-01-26T12:45:59.209Z,100758.80
2023-01-26T12:49:18.389Z,100754.68
2023-01-26T12:52:32.015Z,100752.63
2023-01-26T12:55:38.908Z,100755.02
2023-01-26T12:58:37.088Z,100744.58
2023-01-26T13:01:19.585Z,100746.79
2023-01-26T13:03:59.539Z,100746.62
2023-01-26T13:07:10.409Z,100750.58
2023-01-26T13:10:10.986Z,100753.14
2023-01-26T13:13:02.539Z,100757.10
2023-01-26T13:15:33.143Z,100755.03
2023-01-26T13:18:17.937Z,100752.83
2023-01-26T13:20:49.537Z,100746.84
2023-01-26T13:23:44.289Z,100745.81
2023-01-26T13:26:17.751Z,100743.08
2023-01-26T13:28:48.288Z,100743.95
2023-01-26T13:31:35.505Z,100741.54
2023-01-26T13:34:10.379Z,100745.46
2023-01-26T13:36:45.536Z,100743.73
2023-01-26T13:39:27.831Z,100744.98
2023-01-26T13:41:56.937Z,100749.14
2023-01-26T13:44:40.977Z,100754.13
2023-01-26T13:47:15.937Z,100751.58
2023-01-26T13:49:47.664Z,100750.02
2023-01-26T13:52:24.571Z,100744.90
2023-01-26T13:54:57.099Z,100745.42
2023-01-26T13:57:29.587Z,100738.58
2023-01-26T14:00:00.776Z,100741.13
2023-01-26T14:02:32.592Z,100739.77
2023-01-26T14:05:04.832Z,100734.28
2023-01-26T14:07:41.549Z,100734.29
2023-01-26T14:10:42.577Z,100728.80
2023-01-26T14:13:44.061Z,100729.83
2023-01-26T14:16:36.197Z,100728.80
2023-01-26T14:19:42.050Z,100732.74
2023-01-26T14:22:31.981Z,100735.14
2023-01-26T14:25:26.494Z,100737.17
2023-01-26T14:28:18.427Z,100737.52
2023-01-26T14:30:58.499Z,100736.98
2023-01-26T14:33:32.569Z,100737.68
2023-01-26T14:36:22.055Z,100745.73
2023-01-26T14:39:33.118Z,100749.84
2023-01-26T14:42:38.824Z,100744.71
2023-01-26T14:45:17.648Z,100741.80
2023-01-26T14:48:13.266Z,100746.09
2023-01-26T14:50:47.410Z,100746.41
2023-01-26T14:53:22.856Z,100746.41
2023-01-26T14:55:53.559Z,100742.81
2023-01-26T14:58:28.583Z,100744.86
2023-01-26T15:00:59.732Z,100743.51
2023-01-26T15:03:41.944Z,100742.14
2023-01-26T15:06:15.941Z,100742.13
2023-01-26T15:09:01.265Z,100743.16
2023-01-26T15:11:53.218Z,100737.67
2023-01-26T15:14:37.039Z,100733.55
2023-01-26T15:17:06.450Z,100737.66
2023-01-26T15:19:42.551Z,100736.79
2023-01-26T15:22:23.697Z,100739.17
2023-01-26T15:25:04.901Z,100739.33
2023-01-26T15:27:37.527Z,100739.84
2023-01-26T15:30:08.456Z,100738.45
2023-01-26T15:32:40.015Z,100740.34
2023-01-26T15:35:20.566Z,100739.14
2023-01-26T15:37:59.439Z,100743.39
2023-01-26T15:40:31.234Z,100742.02
2023-01-26T15:43:26.117Z,100744.25
2023-01-26T15:45:57.914Z,100744.05
2023-01-26T15:48:31.881Z,100739.60
2023-01-26T15:51:01.479Z,100742.19
2023-01-26T15:53:30.855Z,100748.33
2023-01-26T15:56:01.136Z,100746.77
2023-01-26T15:58:31.879Z,100747.61
2023-01-26T16:01:02.947Z,100750.16
2023-01-26T16:03:31.766Z,100740.21
2023-01-26T16:06:39.196Z,100737.95
2023-01-26T16:09:08.414Z,100737.56
2023-01-26T16:11:43.546Z,100739.95
2023-01-26T16:14:14.284Z,100740.62
2023-01-26T16:16:46.641Z,100738.23
2023-01-26T16:19:33.727Z,100738.10
2023-01-26T16:22:04.421Z,100739.45
2023-01-26T16:24:33.081Z,100739.77
2023-01-26T16:27:04.067Z,100743.51
2023-01-26T16:29:35.991Z,100741.82
2023-01-26T16:32:36.039Z,100741.98
2023-01-26T16:35:15.245Z,100740.61
2023-01-26T16:37:44.585Z,100739.61
2023-01-26T16:40:17.565Z,100741.85
2023-01-26T16:42:51.641Z,100743.40
2023-01-26T16:45:22.026Z,100741.18
2023-01-26T16:47:55.295Z,100737.07
2023-01-26T16:50:25.498Z,100735.02
2023-01-26T16:53:23.609Z,100733.80
2023-01-26T16:55:56.668Z,100727.64
2023-01-26T16:58:44.058Z,100728.16
2023-01-26T17:01:30.460Z,100729.52
2023-01-26T17:04:21.116Z,100732.60
2023-01-26T17:07:39.118Z,100734.63
2023-01-26T17:10:34.702Z,100742.46
2023-01-26T17:13:18.874Z,100748.27
2023-01-26T17:15:57.148Z,100749.48
2023-01-26T17:18:27.041Z,100748.79
2023-01-26T17:21:36.979Z,100752.89
2023-01-26T17:24:11.718Z,100753.27
2023-01-26T17:26:43.523Z,100754.64
2023-01-26T17:29:18.241Z,100754.45
2023-01-26T17:31:53.561Z,100755.63
2023-01-26T17:34:24.907Z,100760.41
2023-01-26T17:36:55.002Z,100764.32
2023-01-26T17:39:29.246Z,100765.02
2023-01-26T17:41:58.914Z,100767.58
2023-01-26T17:44:29.832Z,100769.48
2023-01-26T17:46:59.520Z,100768.32
2023-01-26T17:49:28.917Z,100766.66
2023-01-26T17:51:58.081Z,100769.96
2023-01-26T17:54:27.616Z,100767.42
2023-01-26T17:56:56.868Z,100769.64
2023-01-26T17:59:26.127Z,100771.36
2023-01-26T18:01:54.725Z,100772.55
2023-01-26T18:04:23.678Z,100774.27
2023-01-26T18:07:04.952Z,100773.75
2023-01-26T18:09:35.212Z,100773.25
2023-01-26T18:12:09.533Z,100776.16
2023-01-26T18:14:39.070Z,100775.30
2023-01-26T18:17:13.928Z,100776.63
2023-01-26T18:19:43.217Z,100779.51
2023-01-26T18:22:14.026Z,100783.95
2023-01-26T18:24:42.813Z,100781.02
2023-01-26T18:27:12.127Z,100784.27
2023-01-26T18:29:41.218Z,100785.98
2023-01-26T18:32:11.846Z,100782.40
2023-01-26T18:34:44.381Z,100780.52
2023-01-26T18:37:16.062Z,100783.77
2023-01-26T18:39:45.470Z,100787.39
2023-01-26T18:42:14.619Z,100790.65
2023-01-26T18:44:44.829Z,100794.27
2023-01-26T18:47:14.215Z,100790.52
2023-01-26T18:49:42.937Z,100791.92
2023-01-26T18:52:14.990Z,100789.41
2023-01-26T18:54:45.056Z,100789.91
2023-01-26T18:57:19.079Z,100795.40
2023-01-26T18:59:49.805Z,100793.33
2023-01-26T19:02:19.820Z,100796.58
2023-01-26T19:04:54.017Z,100797.08
2023-01-26T19:07:25.900Z,100795.86
2023-01-26T19:09:57.398Z,100800.11
2023-01-26T19:12:28.779Z,100796.50
2023-01-26T19:15:00.892Z,100795.97
2023-01-26T19:17:34.377Z,100794.25
2023-01-26T19:20:04.986Z,100794.77
2023-01-26T19:22:35.178Z,100792.56
2023-01-26T19:25:06.467Z,100795.15
2023-01-26T19:27:36.341Z,100795.14
2023-01-26T19:30:07.192Z,100794.27
2023-01-26T19:32:37.418Z,100794.96
2023-01-26T19:35:10.164Z,100791.05
2023-01-26T19:37:42.130Z,100793.44
2023-01-26T19:40:13.859Z,100791.57
2023-01-26T19:42:44.297Z,100793.13
2023-01-26T19:45:14.836Z,100795.17
2023-01-26T19:47:48.620Z,100792.79
2023-01-26T19:50:19.149Z,100788.70
2023-01-26T19:52:49.010Z,100788.55
2023-01-26T19:55:18.348Z,100787.70
2023-01-26T19:57:48.457Z,100789.23
2023-01-26T20:00:21.287Z,100786.84
2023-01-26T20:02:51.618Z,100784.98
2023-01-26T20:05:24.074Z,100780.36
2023-01-26T20:07:54.791Z,100778.98
2023-01-26T20:10:26.682Z,100779.66
2023-01-26T20:12:59.897Z,100779.64
2023-01-26T20:15:30.629Z,100776.37
2023-01-26T20:18:01.625Z,100771.58
2023-01-26T20:20:36.657Z,100769.70
2023-01-26T20:23:10.033Z,100771.10
2023-01-26T20:25:40.025Z,100770.95
2023-01-26T20:28:10.424Z,100773.89
2023-01-26T20:30:45.702Z,100779.01
2023-01-26T20:33:15.651Z,100773.37
2023-01-26T20:35:47.108Z,100777.98
2023-01-26T20:38:17.438Z,100774.56
2023-01-26T20:40:47.821Z,100774.05
2023-01-26T20:43:19.998Z,100774.21
2023-01-26T20:45:50.481Z,100773.88
2023-01-26T20:48:20.370Z,100770.46
2023-01-26T20:50:49.189Z,100768.08
2023-01-26T20:53:20.301Z,100772.68
2023-01-26T20:55:50.240Z,100775.95
2023-01-26T20:58:23.579Z,100777.84
2023-01-26T21:00:53.240Z,100781.44
2023-01-26T21:03:26.707Z,100778.20
2023-01-26T21:06:13.511Z,100780.42
2023-01-26T21:08:43.147Z,100780.09
2023-01-26T21:11:14.844Z,100784.20
2023-01-26T21:13:47.175Z,100785.21
2023-01-26T21:16:17.593Z,100785.38
2023-01-26T21:18:49.667Z,100787.08
2023-01-26T21:21:19.190Z,100786.56
2023-01-26T21:23:49.688Z,100787.58
2023-01-26T21:26:22.312Z,100787.58
2023-01-26T21:28:53.255Z,100790.48
2023-01-26T21:31:25.589Z,100787.92
2023-01-26T21:33:55.309Z,100787.55
2023-01-26T21:36:26.778Z,100787.17
2023-01-26T21:38:59.116Z,100786.30
2023-01-26T21:41:51.427Z,100785.80
2023-01-26T21:44:23.850Z,100780.48
2023-01-26T21:46:55.448Z,100777.56
2023-01-26T21:49:25.644Z,100775.36
2023-01-26T21:52:12.947Z,100772.78
2023-01-26T21:54:42.255Z,100774.83
2023-01-26T21:57:30.053Z,100770.71
2023-01-26T21:59:58.809Z,100771.38
2023-01-26T22:02:27.209Z,100769.48
2023-01-26T22:04:56.467Z,100769.66
2023-01-26T22:07:28.403Z,100772.22
2023-01-26T22:09:56.951Z,100771.88
2023-01-26T22:12:25.460Z,100774.25
2023-01-26T22:14:54.217Z,100773.73
2023-01-26T22:17:23.336Z,100775.77
2023-01-26T22:19:52.535Z,100772.66
2023-01-26T22:22:21.114Z,100771.78
2023-01-26T22:24:49.567Z,100767.83
2023-01-26T22:27:18.443Z,100765.92
2023-01-26T22:29:46.985Z,100765.39
2023-01-26T22:32:19.259Z,100767.42
2023-01-26T22:34:48.256Z,100761.44
2023-01-26T22:37:17.267Z,100761.09
2023-01-26T22:39:46.168Z,100763.98
2023-01-26T22:42:14.920Z,100763.33
2023-01-26T22:44:43.367Z,100765.55
2023-01-26T22:47:12.409Z,100770.19
2023-01-26T22:49:41.276Z,100774.11
2023-01-26T22:52:10.297Z,100775.14
2023-01-26T22:54:39.065Z,100775.98
2023-01-26T22:57:07.616Z,100763.87
2023-01-26T22:59:36.116Z,100762.54
2023-01-26T23:02:05.077Z,100764.59
2023-01-26T23:04:34.428Z,100765.77
2023-01-26T23:07:38.103Z,100767.50
2023-01-26T23:10:07.585Z,100771.10
2023-01-26T23:12:36.076Z,100770.23
2023-01-26T23:15:05.156Z,100766.98
2023-01-26T23:17:33.936Z,100768.85
2023-01-26T23:20:03.237Z,100769.02
2023-01-26T23:22:32.376Z,100768.15
2023-01-26T23:25:19.668Z,100764.89
2023-01-26T23:27:48.582Z,100758.38
2023-01-26T23:30:17.656Z,100761.12
2023-01-26T23:32:46.115Z,100770.33
2023-01-26T23:35:15.017Z,100771.52
2023-01-26T23:37:44.228Z,100769.66
2023-01-26T23:40:14.214Z,100770.52
2023-01-26T23:42:58.017Z,100770.16
2023-01-26T23:45:32.047Z,100771.52
2023-01-26T23:48:01.338Z,100767.60
2023-01-26T23:50:30.949Z,100766.59
2023-01-26T23:52:59.646Z,100760.44
2023-01-26T23:55:29.016Z,100761.94
2023-01-26T23:57:57.658Z,100759.21
